Time;durP1;ratioP1;P1;durP2;ratioP2;P2;SDS_P1;SDS_P2;PMS_P1;PMS_P2;Temp;Humidity;BMP_temperature;BMP_pressure;BME280_temperature;BME280_humidity;BME280_pressure;Samples;Min_cycle;Max_cycle;Signal;HPM_P1;HPM_P2
2023/01/25 00:02:14;;;;;;;82.75;33.63;;;0.90;99.90;;;;;;5112760;27;20043;-69
2023/01/25 00:04:40;;;;;;;80.82;34.25;;;0.90;99.90;;;;;;5106991;27;20064;-68
2023/01/25 00:07:05;;;;;;;79.32;32.70;;;0.80;99.90;;;;;;5122367;27;20045;-69
2023/01/25 00:09:31;;;;;;;84.25;34.42;;;0.90;99.90;;;;;;5111236;27;20524;-69
2023/01/25 00:11:57;;;;;;;83.75;34.55;;;0.80;99.90;;;;;;5111350;27;20075;-69
2023/01/25 00:14:23;;;;;;;78.43;32.00;;;0.90;99.90;;;;;;5107017;27;20039;-70
2023/01/25 00:16:49;;;;;;;77.55;32.97;;;0.90;99.90;;;;;;5112646;28;20544;-69
2023/01/25 00:19:14;;;;;;;80.25;33.80;;;0.90;99.90;;;;;;5111671;27;20130;-70
2023/01/25 00:21:40;;;;;;;81.88;33.72;;;0.80;99.90;;;;;;5112667;27;20045;-69
2023/01/25 00:24:07;;;;;;;85.07;33.03;;;0.80;99.90;;;;;;5104713;27;20043;-69
2023/01/25 00:26:34;;;;;;;77.50;32.72;;;0.80;99.90;;;;;;5107422;27;20035;-69
2023/01/25 00:29:00;;;;;;;73.47;31.38;;;0.80;99.90;;;;;;5110617;27;20045;-69
2023/01/25 00:31:32;;;;;;;75.65;31.88;;;0.80;99.90;;;;;;5124318;27;20042;-69
2023/01/25 00:34:28;;;;;;;74.90;31.93;;;0.80;99.90;;;;;;5106226;28;20054;-69
2023/01/25 00:37:01;;;;;;;75.53;32.15;;;0.80;99.90;;;;;;5112446;28;20055;-69
2023/01/25 00:39:27;;;;;;;77.55;32.05;;;0.80;99.90;;;;;;5106638;28;20055;-70
2023/01/25 00:41:54;;;;;;;76.65;32.40;;;0.70;99.90;;;;;;5107408;28;20055;-69
2023/01/25 00:44:20;;;;;;;72.45;31.05;;;0.70;99.90;;;;;;5100563;28;20043;-69
2023/01/25 00:46:45;;;;;;;73.75;31.20;;;0.70;99.90;;;;;;5110067;28;20035;-69
2023/01/25 00:49:23;;;;;;;73.10;31.75;;;0.70;99.90;;;;;;5109730;27;20043;-70
2023/01/25 00:51:49;;;;;;;70.65;30.58;;;0.70;99.90;;;;;;5109387;28;20428;-68
2023/01/25 00:54:15;;;;;;;72.40;31.50;;;0.70;99.90;;;;;;5107701;28;20086;-70
2023/01/25 00:56:41;;;;;;;73.10;30.50;;;0.70;99.90;;;;;;5092760;28;20405;-69
2023/01/25 00:59:08;;;;;;;70.15;30.25;;;0.70;99.90;;;;;;5097632;28;20043;-69
2023/01/25 01:01:34;;;;;;;70.28;30.75;;;0.70;99.90;;;;;;5104332;28;20031;-69
2023/01/25 01:03:59;;;;;;;68.00;28.88;;;0.70;99.90;;;;;;5112700;28;20393;-69
2023/01/25 01:06:25;;;;;;;66.68;29.40;;;0.60;99.90;;;;;;5111638;28;20051;-69
2023/01/25 01:08:50;;;;;;;70.57;30.23;;;0.60;99.90;;;;;;5109450;28;20525;-69
2023/01/25 01:11:16;;;;;;;69.53;30.13;;;0.70;99.90;;;;;;5107288;28;20405;-69
2023/01/25 01:13:42;;;;;;;67.28;29.25;;;0.60;99.90;;;;;;5127613;27;20038;-69
2023/01/25 01:16:10;;;;;;;66.03;28.33;;;0.60;99.90;;;;;;5112220;27;20071;-69
2023/01/25 01:18:44;;;;;;;63.78;28.95;;;0.60;99.90;;;;;;5103895;27;20531;-69
2023/01/25 01:21:11;;;;;;;67.35;29.65;;;0.60;99.90;;;;;;5109985;27;20044;-69
2023/01/25 01:23:37;;;;;;;64.32;29.50;;;0.60;99.90;;;;;;5113138;27;20043;-69
2023/01/25 01:26:06;;;;;;;66.07;28.45;;;0.60;99.90;;;;;;5123607;27;20035;-70
2023/01/25 01:28:33;;;;;;;64.63;28.90;;;0.60;99.90;;;;;;5128429;27;20092;-68
2023/01/25 01:31:04;;;;;;;65.30;29.00;;;0.60;99.90;;;;;;5116067;27;20466;-69
2023/01/25 01:33:30;;;;;;;64.43;27.65;;;0.60;99.90;;;;;;5107577;28;20046;-70
2023/01/25 01:35:56;;;;;;;66.55;28.05;;;0.60;99.90;;;;;;5113889;27;20047;-69
2023/01/25 01:38:22;;;;;;;62.38;28.35;;;0.60;99.90;;;;;;5107707;27;20112;-70
2023/01/25 01:40:48;;;;;;;61.90;27.33;;;0.60;99.90;;;;;;5116035;27;20054;-69
2023/01/25 01:43:23;;;;;;;63.47;28.58;;;0.50;99.90;;;;;;5112029;27;20035;-68
2023/01/25 01:45:56;;;;;;;64.75;28.83;;;0.60;99.90;;;;;;5108876;27;20437;-69
2023/01/25 01:48:46;;;;;;;64.25;28.65;;;0.60;99.90;;;;;;5112517;27;20449;-69
2023/01/25 01:51:32;;;;;;;63.03;28.83;;;0.50;99.90;;;;;;5094281;27;20175;-70
2023/01/25 01:54:12;;;;;;;64.60;28.63;;;0.50;99.90;;;;;;5113930;27;20079;-70
2023/01/25 01:56:57;;;;;;;62.80;28.20;;;0.50;99.90;;;;;;5108744;27;20059;-69
2023/01/25 01:59:32;;;;;;;63.85;27.75;;;0.50;99.90;;;;;;5107529;27;20394;-69
2023/01/25 02:01:57;;;;;;;66.97;28.85;;;0.50;99.90;;;;;;5106489;27;20118;-69
2023/01/25 02:04:25;;;;;;;66.95;29.30;;;0.50;99.90;;;;;;5106099;27;20156;-70
2023/01/25 02:07:10;;;;;;;64.88;29.00;;;0.50;99.90;;;;;;5106690;27;20039;-69
2023/01/25 02:09:36;;;;;;;66.75;29.30;;;0.50;99.90;;;;;;5102788;27;20035;-70
2023/01/25 02:12:03;;;;;;;65.57;29.15;;;0.50;99.90;;;;;;5105208;27;20517;-70
2023/01/25 02:14:29;;;;;;;61.65;27.58;;;0.50;99.90;;;;;;5110679;27;20066;-69
2023/01/25 02:16:55;;;;;;;66.65;29.17;;;0.50;99.90;;;;;;5092210;27;20501;-68
2023/01/25 02:19:34;;;;;;;65.72;29.67;;;0.50;99.90;;;;;;5110061;27;20031;-69
2023/01/25 02:22:06;;;;;;;64.43;27.80;;;0.50;99.90;;;;;;5107068;27;20129;-69
2023/01/25 02:24:33;;;;;;;71.05;30.25;;;0.50;99.90;;;;;;5104953;27;20080;-69
2023/01/25 02:26:58;;;;;;;69.15;29.38;;;0.50;99.90;;;;;;5112131;27;20046;-69
2023/01/25 02:29:26;;;;;;;69.15;29.20;;;0.50;99.90;;;;;;5101945;27;20031;-69
2023/01/25 02:32:06;;;;;;;65.10;28.88;;;0.50;99.90;;;;;;5104071;27;20042;-69
2023/01/25 02:34:32;;;;;;;67.40;29.08;;;0.50;99.90;;;;;;5101453;27;20572;-69
2023/01/25 02:36:58;;;;;;;67.93;29.30;;;0.50;99.90;;;;;;5126486;27;20130;-69
2023/01/25 02:39:26;;;;;;;67.82;29.83;;;0.50;99.90;;;;;;5124659;27;20050;-68
2023/01/25 02:41:52;;;;;;;63.70;28.38;;;0.50;99.90;;;;;;5112093;27;20050;-69
2023/01/25 02:44:26;;;;;;;63.90;28.98;;;0.50;99.90;;;;;;5101926;27;20484;-68
2023/01/25 02:46:52;;;;;;;64.57;29.10;;;0.50;99.90;;;;;;5108438;27;20050;-69
2023/01/25 02:49:18;;;;;;;66.75;28.50;;;0.40;99.90;;;;;;5123543;27;20043;-69
2023/01/25 02:51:47;;;;;;;66.25;28.48;;;0.40;99.90;;;;;;5118075;27;20078;-69
2023/01/25 02:54:15;;;;;;;70.20;28.92;;;0.40;99.90;;;;;;5113559;27;20172;-69
2023/01/25 02:56:41;;;;;;;65.90;29.23;;;0.40;99.90;;;;;;5117467;27;20548;-69
2023/01/25 02:59:09;;;;;;;67.55;29.42;;;0.40;99.90;;;;;;5121451;27;20118;-69
2023/01/25 03:01:36;;;;;;;70.30;29.65;;;0.40;99.90;;;;;;5110242;27;20478;-70
2023/01/25 03:04:03;;;;;;;66.70;29.35;;;0.40;99.90;;;;;;5093893;27;20035;-69
2023/01/25 03:06:29;;;;;;;69.72;30.27;;;0.40;99.90;;;;;;5114198;27;20039;-69
2023/01/25 03:08:54;;;;;;;68.63;29.02;;;0.40;99.90;;;;;;5110346;27;20045;-69
2023/01/25 03:11:20;;;;;;;69.90;29.85;;;0.40;99.90;;;;;;5111522;27;20046;-69
2023/01/25 03:13:45;;;;;;;70.00;29.77;;;0.40;99.90;;;;;;5124209;27;20089;-68
2023/01/25 03:16:12;;;;;;;68.35;29.65;;;0.40;99.90;;;;;;5104103;27;20427;-69
2023/01/25 03:18:39;;;;;;;68.93;29.50;;;0.50;99.90;;;;;;5104446;27;20039;-69
2023/01/25 03:21:13;;;;;;;71.32;30.50;;;0.40;99.90;;;;;;5111754;27;20049;-68
2023/01/25 03:23:40;;;;;;;68.13;29.33;;;0.40;99.90;;;;;;5097501;27;20047;-69
2023/01/25 03:26:18;;;;;;;69.57;29.48;;;0.40;99.90;;;;;;5096439;27;20061;-69
2023/01/25 03:28:44;;;;;;;69.85;29.77;;;0.40;99.90;;;;;;5115614;27;20474;-69
2023/01/25 03:31:12;;;;;;;69.60;29.15;;;0.40;99.90;;;;;;5112761;27;20039;-69
2023/01/25 03:33:38;;;;;;;70.38;30.23;;;0.40;99.90;;;;;;5111659;27;20035;-69
2023/01/25 03:36:05;;;;;;;71.85;30.75;;;0.40;99.90;;;;;;5107500;27;20731;-69
2023/01/25 03:38:31;;;;;;;67.70;29.13;;;0.40;99.90;;;;;;5121742;27;20092;-69
2023/01/25 03:40:56;;;;;;;70.88;29.80;;;0.40;99.90;;;;;;5108983;27;20397;-68
2023/01/25 03:43:23;;;;;;;75.88;30.98;;;0.50;99.90;;;;;;5128884;27;20035;-67
2023/01/25 03:45:53;;;;;;;76.72;31.27;;;0.40;99.90;;;;;;5100860;27;20042;-69
2023/01/25 03:48:19;;;;;;;75.90;30.50;;;0.40;99.90;;;;;;5102443;27;20039;-69
2023/01/25 03:50:53;;;;;;;68.35;29.50;;;0.40;99.90;;;;;;5106009;27;20042;-67
2023/01/25 03:53:27;;;;;;;68.75;28.27;;;0.40;99.90;;;;;;5109619;27;20118;-68
2023/01/25 03:55:55;;;;;;;70.30;29.05;;;0.40;99.90;;;;;;5108993;27;20057;-68
2023/01/25 03:58:21;;;;;;;72.50;29.58;;;0.40;99.90;;;;;;5103401;27;20084;-67
2023/01/25 04:00:46;;;;;;;73.53;29.63;;;0.40;99.90;;;;;;5101907;27;20035;-68
2023/01/25 04:03:12;;;;;;;71.07;29.48;;;0.40;99.90;;;;;;5096191;27;20111;-68
2023/01/25 04:05:38;;;;;;;73.90;28.80;;;0.30;99.90;;;;;;5095681;27;20035;-69
2023/01/25 04:08:04;;;;;;;71.28;28.58;;;0.40;99.90;;;;;;5102337;27;20046;-69
2023/01/25 04:10:29;;;;;;;72.50;30.30;;;0.40;99.90;;;;;;5105083;27;20050;-70
2023/01/25 04:12:55;;;;;;;77.95;31.05;;;0.40;99.90;;;;;;5103545;27;20044;-69
2023/01/25 04:15:21;;;;;;;70.78;29.80;;;0.40;99.90;;;;;;5108393;27;20409;-69
2023/01/25 04:17:46;;;;;;;74.53;29.55;;;0.40;99.90;;;;;;5100644;28;20043;-68
2023/01/25 04:20:12;;;;;;;74.20;30.83;;;0.40;99.90;;;;;;5105521;27;20036;-68
2023/01/25 04:22:37;;;;;;;75.90;29.77;;;0.40;99.90;;;;;;5105141;27;20027;-69
2023/01/25 04:25:03;;;;;;;74.75;30.58;;;0.40;99.90;;;;;;5101554;27;20035;-69
2023/01/25 04:27:29;;;;;;;69.10;29.73;;;0.40;99.90;;;;;;5100853;28;20374;-69
2023/01/25 04:29:54;;;;;;;74.60;30.40;;;0.30;99.90;;;;;;5110958;27;20031;-70
2023/01/25 04:32:20;;;;;;;75.15;29.75;;;0.20;99.90;;;;;;5124496;27;20114;-69
2023/01/25 04:34:45;;;;;;;76.55;30.00;;;0.20;99.90;;;;;;5087124;28;20105;-69
2023/01/25 04:37:11;;;;;;;70.72;29.45;;;0.30;99.90;;;;;;5104340;28;20035;-69
2023/01/25 04:39:37;;;;;;;75.35;28.92;;;0.20;99.90;;;;;;5103260;28;20042;-69
2023/01/25 04:42:02;;;;;;;70.38;29.60;;;0.30;99.90;;;;;;5121520;27;20054;-69
2023/01/25 04:44:28;;;;;;;75.45;32.17;;;0.30;99.90;;;;;;5107446;28;20043;-69
2023/01/25 04:46:53;;;;;;;71.82;29.67;;;0.30;99.90;;;;;;5104291;28;20046;-69
2023/01/25 04:49:19;;;;;;;77.00;30.00;;;0.30;99.90;;;;;;5105856;27;20042;-69
2023/01/25 04:51:45;;;;;;;76.78;31.38;;;0.30;99.90;;;;;;5107825;27;20447;-67
2023/01/25 04:54:10;;;;;;;75.78;31.38;;;0.30;99.90;;;;;;5125175;27;20046;-69
2023/01/25 04:56:36;;;;;;;71.55;29.42;;;0.30;99.90;;;;;;5111076;27;20034;-69
2023/01/25 04:59:01;;;;;;;73.28;29.48;;;0.30;99.90;;;;;;5110252;27;20088;-68
2023/01/25 05:01:27;;;;;;;81.35;32.40;;;0.30;99.90;;;;;;5106353;27;20043;-69
2023/01/25 05:03:52;;;;;;;72.07;29.40;;;0.30;99.90;;;;;;5099117;27;20039;-68
2023/01/25 05:06:18;;;;;;;77.18;30.45;;;0.40;99.90;;;;;;5104885;27;20187;-69
2023/01/25 05:08:44;;;;;;;75.75;30.52;;;0.40;99.90;;;;;;5105149;27;20478;-69
2023/01/25 05:11:09;;;;;;;73.05;30.63;;;0.40;99.90;;;;;;5121247;27;20039;-67
2023/01/25 05:13:35;;;;;;;76.57;31.95;;;0.40;99.90;;;;;;5121067;27;20027;-66
2023/01/25 05:16:00;;;;;;;74.85;32.05;;;0.40;99.90;;;;;;5103419;27;20491;-66
2023/01/25 05:18:26;;;;;;;75.95;32.70;;;0.30;99.90;;;;;;5104219;27;20031;-67
2023/01/25 05:20:55;;;;;;;76.70;31.73;;;0.30;99.90;;;;;;5102250;27;20046;-68
2023/01/25 05:23:21;;;;;;;75.18;29.73;;;0.20;99.90;;;;;;5102054;27;20473;-68
2023/01/25 05:28:30;;;;;;;73.05;28.85;;;0.30;99.90;;;;;;5104800;27;20111;-69
2023/01/25 05:30:56;;;;;;;72.72;28.73;;;0.20;99.90;;;;;;5105079;27;20031;-69
2023/01/25 05:33:21;;;;;;;69.57;28.00;;;0.30;99.90;;;;;;5102231;27;20039;-68
2023/01/25 05:35:47;;;;;;;69.50;29.35;;;0.30;99.90;;;;;;5091851;27;20465;-69
2023/01/25 05:38:12;;;;;;;71.85;30.42;;;0.30;99.90;;;;;;5123303;27;20039;-67
2023/01/25 05:40:38;;;;;;;65.47;26.40;;;0.20;99.90;;;;;;5107239;27;20035;-69
2023/01/25 05:43:04;;;;;;;66.28;28.25;;;0.10;99.90;;;;;;5101479;27;20039;-69
2023/01/25 05:45:29;;;;;;;67.90;27.33;;;0.00;99.90;;;;;;5103106;27;20039;-69
2023/01/25 05:47:56;;;;;;;68.90;28.95;;;0.10;99.90;;;;;;5097494;27;20067;-69
2023/01/25 05:50:23;;;;;;;75.05;30.23;;;0.00;99.90;;;;;;5101589;27;20093;-68
2023/01/25 05:52:49;;;;;;;73.15;29.77;;;0.00;99.90;;;;;;5117648;27;20535;-68
2023/01/25 05:55:15;;;;;;;73.40;29.85;;;0.00;99.90;;;;;;5122037;27;20032;-69
2023/01/25 05:57:41;;;;;;;72.90;28.90;;;0.00;99.90;;;;;;5102474;27;20042;-68
2023/01/25 06:00:08;;;;;;;76.28;29.45;;;0.00;99.90;;;;;;5103502;27;20122;-69
2023/01/25 06:02:33;;;;;;;73.57;28.25;;;0.00;99.90;;;;;;5100731;27;20045;-67
2023/01/25 06:04:59;;;;;;;72.78;29.13;;;0.00;99.90;;;;;;5106633;27;20539;-71
2023/01/25 06:07:25;;;;;;;76.43;30.00;;;0.10;99.90;;;;;;5108880;27;20109;-72
2023/01/25 06:09:50;;;;;;;69.35;27.55;;;0.00;99.90;;;;;;5103513;27;20462;-71
2023/01/25 06:12:19;;;;;;;73.57;29.13;;;0.10;99.90;;;;;;5099671;27;20031;-71
2023/01/25 06:14:46;;;;;;;72.00;28.67;;;0.10;99.90;;;;;;5103465;27;20068;-71
2023/01/25 06:17:12;;;;;;;74.35;30.27;;;0.10;99.90;;;;;;5101353;27;20035;-71
2023/01/25 06:19:37;;;;;;;73.60;28.92;;;0.10;99.90;;;;;;5104541;27;20062;-70
2023/01/25 06:22:03;;;;;;;69.10;27.75;;;0.10;99.90;;;;;;5098129;27;20384;-69
2023/01/25 06:24:29;;;;;;;78.45;29.75;;;0.10;99.90;;;;;;5098447;27;20530;-71
2023/01/25 06:26:54;;;;;;;71.10;28.55;;;0.10;99.90;;;;;;5112134;27;20035;-70
2023/01/25 06:29:20;;;;;;;75.70;30.42;;;0.10;99.90;;;;;;5111453;27;20033;-72
2023/01/25 06:31:45;;;;;;;71.82;29.08;;;0.10;99.90;;;;;;5106165;27;20045;-70
2023/01/25 06:34:11;;;;;;;76.63;29.42;;;0.10;99.90;;;;;;5109810;27;20087;-71
2023/01/25 06:36:36;;;;;;;76.50;29.70;;;0.10;99.90;;;;;;5090165;27;20047;-71
2023/01/25 06:39:02;;;;;;;75.97;30.83;;;0.10;99.90;;;;;;5090365;27;20043;-69
2023/01/25 06:41:28;;;;;;;80.40;30.75;;;0.20;99.90;;;;;;5107652;27;20043;-70
2023/01/25 06:43:54;;;;;;;75.88;32.35;;;0.20;99.90;;;;;;5107065;27;20066;-69
2023/01/25 06:46:20;;;;;;;76.90;30.42;;;0.20;99.90;;;;;;5105727;27;20044;-71
2023/01/25 06:48:46;;;;;;;77.05;30.17;;;0.20;99.90;;;;;;5124487;27;20084;-70
2023/01/25 06:51:13;;;;;;;77.38;30.30;;;0.10;99.90;;;;;;5105837;27;20451;-70
2023/01/25 06:53:44;;;;;;;74.38;28.73;;;0.10;99.90;;;;;;5122858;27;20062;-70
2023/01/25 06:56:12;;;;;;;75.30;31.05;;;0.10;99.90;;;;;;5104864;27;20032;-72
2023/01/25 06:58:38;;;;;;;77.53;30.92;;;0.10;99.90;;;;;;5124800;27;20042;-71
2023/01/25 07:01:26;;;;;;;74.97;29.17;;;0.10;99.90;;;;;;5106700;27;20122;-71
2023/01/25 07:03:54;;;;;;;80.38;30.08;;;0.00;99.90;;;;;;5107942;27;20043;-71
2023/01/25 07:06:21;;;;;;;79.75;30.92;;;0.00;99.90;;;;;;5090688;27;20038;-72
2023/01/25 07:08:47;;;;;;;76.18;29.35;;;0.00;99.90;;;;;;5100398;27;20118;-71
2023/01/25 07:11:13;;;;;;;74.97;29.13;;;0.10;99.90;;;;;;5111987;27;20103;-68
2023/01/25 07:13:44;;;;;;;75.00;31.38;;;0.10;99.90;;;;;;5123069;27;20052;-71
2023/01/25 07:16:12;;;;;;;76.45;29.35;;;0.10;99.90;;;;;;5102880;27;20067;-71
2023/01/25 07:18:38;;;;;;;78.50;30.92;;;0.00;99.90;;;;;;5106254;27;20069;-70
2023/01/25 07:21:05;;;;;;;72.40;28.90;;;0.00;99.90;;;;;;5108916;27;20070;-69
2023/01/25 07:23:31;;;;;;;75.15;29.42;;;0.00;99.90;;;;;;5103005;27;20035;-70
2023/01/25 07:25:57;;;;;;;74.22;28.10;;;0.00;99.90;;;;;;5108789;27;20035;-69
2023/01/25 07:28:24;;;;;;;75.53;27.90;;;0.00;99.90;;;;;;5125961;27;20027;-70
2023/01/25 07:30:50;;;;;;;70.93;28.40;;;0.00;99.90;;;;;;5104813;27;20562;-69
2023/01/25 07:33:16;;;;;;;73.85;28.33;;;0.00;99.90;;;;;;5103734;27;20043;-70
2023/01/25 07:35:41;;;;;;;67.85;26.77;;;0.00;99.90;;;;;;5108462;27;20092;-71
2023/01/25 07:38:07;;;;;;;75.65;29.27;;;0.00;99.90;;;;;;5112136;27;20066;-71
2023/01/25 07:40:33;;;;;;;68.35;26.42;;;0.00;99.90;;;;;;5105493;27;20077;-72
2023/01/25 07:42:59;;;;;;;70.35;29.77;;;0.00;99.90;;;;;;5106308;27;20035;-71
2023/01/25 07:45:31;;;;;;;69.90;27.92;;;0.00;99.90;;;;;;5100309;27;20032;-69
2023/01/25 07:48:00;;;;;;;64.07;25.48;;;-0.10;99.90;;;;;;5108700;27;20047;-67
2023/01/25 07:50:26;;;;;;;68.35;28.38;;;-0.10;99.90;;;;;;5108521;27;20062;-72
2023/01/25 07:52:52;;;;;;;69.78;27.08;;;-0.10;99.90;;;;;;5100308;27;20121;-71
2023/01/25 07:55:18;;;;;;;77.40;30.27;;;-0.10;99.90;;;;;;5104289;27;20464;-72
2023/01/25 07:57:44;;;;;;;70.97;26.10;;;-0.10;99.90;;;;;;5104687;27;20066;-71
2023/01/25 08:00:11;;;;;;;75.75;28.27;;;-0.20;99.90;;;;;;5104589;27;20404;-71
2023/01/25 08:02:37;;;;;;;77.05;29.58;;;-0.20;99.90;;;;;;5103165;27;20138;-71
2023/01/25 08:05:03;;;;;;;73.13;28.98;;;-0.20;99.90;;;;;;5086778;27;20121;-69
2023/01/25 08:07:28;;;;;;;75.25;28.65;;;-0.20;99.90;;;;;;5098980;27;20053;-69
2023/01/25 08:09:54;;;;;;;74.13;29.27;;;-0.20;99.90;;;;;;5105674;27;20124;-70
2023/01/25 08:12:21;;;;;;;68.07;28.00;;;-0.20;99.90;;;;;;5106800;27;20043;-70
2023/01/25 08:14:48;;;;;;;67.55;26.27;;;-0.20;99.90;;;;;;5104756;27;20413;-70
2023/01/25 08:17:14;;;;;;;66.35;25.67;;;-0.10;99.90;;;;;;5101843;27;20482;-71
2023/01/25 08:19:39;;;;;;;71.75;29.42;;;-0.10;99.90;;;;;;5104307;27;20038;-70
2023/01/25 08:22:07;;;;;;;74.00;30.08;;;-0.10;99.90;;;;;;5101793;27;20047;-71
2023/01/25 08:24:32;;;;;;;67.85;28.25;;;-0.10;99.90;;;;;;5100040;28;20397;-71
2023/01/25 08:26:58;;;;;;;69.18;26.80;;;-0.10;99.90;;;;;;5101355;27;20033;-70
2023/01/25 08:29:26;;;;;;;70.82;27.95;;;-0.10;99.90;;;;;;5100121;27;20034;-69
2023/01/25 08:31:52;;;;;;;70.65;26.63;;;-0.10;99.90;;;;;;5103674;27;20112;-68
2023/01/25 08:34:18;;;;;;;68.03;27.13;;;-0.20;99.90;;;;;;5100183;28;20477;-68
2023/01/25 08:36:43;;;;;;;65.38;25.83;;;-0.20;99.90;;;;;;5106862;28;20035;-67
2023/01/25 08:39:10;;;;;;;70.95;26.25;;;-0.10;99.90;;;;;;5103333;28;20060;-70
2023/01/25 08:41:36;;;;;;;70.95;26.30;;;-0.10;99.90;;;;;;5101647;27;20051;-69
2023/01/25 08:44:02;;;;;;;69.78;27.85;;;0.00;99.90;;;;;;5104379;28;20583;-70
2023/01/25 08:46:30;;;;;;;64.93;24.45;;;0.00;99.90;;;;;;5103778;28;20118;-67
2023/01/25 08:48:56;;;;;;;69.40;26.33;;;0.00;99.90;;;;;;5107208;28;20043;-71
2023/01/25 08:51:24;;;;;;;67.70;28.10;;;0.00;99.90;;;;;;5108906;27;20088;-69
2023/01/25 08:53:49;;;;;;;62.45;25.33;;;-0.10;99.90;;;;;;5109371;28;20035;-67
2023/01/25 08:56:16;;;;;;;64.45;23.92;;;-0.10;99.90;;;;;;5104251;28;20046;-69
2023/01/25 08:58:47;;;;;;;64.30;24.35;;;-0.10;99.90;;;;;;5107635;28;20046;-70
2023/01/25 09:01:15;;;;;;;65.15;23.52;;;0.00;99.90;;;;;;5110181;28;20043;-70
2023/01/25 09:03:43;;;;;;;66.85;25.13;;;-0.10;99.90;;;;;;5106188;28;20035;-68
2023/01/25 09:06:10;;;;;;;63.15;25.15;;;-0.10;99.90;;;;;;5110231;28;20389;-70
2023/01/25 09:08:39;;;;;;;68.43;25.80;;;0.00;99.90;;;;;;5107115;28;20035;-70
2023/01/25 09:11:13;;;;;;;61.72;24.60;;;0.00;99.90;;;;;;5106984;28;20493;-69
2023/01/25 09:13:42;;;;;;;63.35;24.10;;;0.00;99.90;;;;;;5102283;28;20068;-68
2023/01/25 09:16:14;;;;;;;67.07;24.73;;;0.10;99.90;;;;;;5110504;28;20046;-70
2023/01/25 09:18:41;;;;;;;72.67;29.57;;;0.10;99.90;;;;;;5101232;27;20062;-70
2023/01/25 09:21:08;;;;;;;73.70;27.88;;;0.10;99.90;;;;;;5102188;28;20035;-68
2023/01/25 09:23:34;;;;;;;68.60;25.75;;;0.00;99.90;;;;;;5101848;28;20041;-68
2023/01/25 09:26:00;;;;;;;71.85;27.33;;;0.00;99.90;;;;;;5111209;28;20402;-68
2023/01/25 09:28:28;;;;;;;74.25;26.98;;;0.00;99.90;;;;;;5104013;28;20092;-70
2023/01/25 09:30:59;;;;;;;65.93;23.90;;;0.10;99.90;;;;;;5105839;28;20520;-70
2023/01/25 09:33:27;;;;;;;65.93;25.75;;;0.10;99.90;;;;;;5098784;28;20469;-69
2023/01/25 09:35:53;;;;;;;70.22;26.20;;;0.10;99.90;;;;;;5110071;27;20108;-70
2023/01/25 09:38:19;;;;;;;75.00;28.25;;;0.20;99.90;;;;;;5108308;27;20043;-68
2023/01/25 09:41:02;;;;;;;76.75;28.98;;;0.20;99.90;;;;;;5114605;27;20074;-70
2023/01/25 09:43:41;;;;;;;;;;;0.10;99.90;;;;;;5110275;27;20039;-71
2023/01/25 09:46:21;;;;;;;70.78;25.20;;;0.20;99.90;;;;;;5108874;27;19922;-71
2023/01/25 09:49:10;;;;;;;81.72;27.20;;;0.20;99.90;;;;;;5107756;27;20040;-71
2023/01/25 09:51:48;;;;;;;82.13;30.30;;;0.10;99.90;;;;;;5057937;27;20130;-70
2023/01/25 09:54:17;;;;;;;82.82;32.35;;;0.10;99.90;;;;;;5108516;27;20039;-70
2023/01/25 09:56:43;;;;;;;84.22;32.50;;;0.10;99.90;;;;;;5132501;27;20035;-70
2023/01/25 09:59:16;;;;;;;85.70;31.25;;;0.00;99.90;;;;;;5105320;27;20040;-69
2023/01/25 10:02:00;;;;;;;;;;;0.10;99.90;;;;;;5090437;27;20169;-68
2023/01/25 10:04:42;;;;;;;76.65;26.40;;;0.00;99.90;;;;;;5103572;27;19962;-67
2023/01/25 10:07:22;;;;;;;87.53;29.83;;;0.00;99.90;;;;;;5107194;27;20050;-68
2023/01/25 10:10:04;;;;;;;84.88;29.98;;;0.00;99.90;;;;;;5104835;27;20128;-70
2023/01/25 10:12:35;;;;;;;80.38;27.98;;;0.10;99.90;;;;;;5108757;27;20118;-72
2023/01/25 10:15:01;;;;;;;66.70;25.02;;;0.00;99.90;;;;;;5107674;27;20047;-70
2023/01/25 10:17:37;;;;;;;82.68;30.52;;;0.00;99.90;;;;;;5109590;27;20035;-70
2023/01/25 10:20:15;;;;;;;74.70;26.23;;;-0.10;99.90;;;;;;5105711;27;20039;-69
2023/01/25 10:23:07;;;;;;;72.78;25.83;;;-0.10;99.90;;;;;;5108898;27;20088;-68
2023/01/25 10:25:55;;;;;;;74.75;26.77;;;-0.10;99.90;;;;;;5104225;27;20043;-69
2023/01/25 10:28:27;;;;;;;73.18;25.48;;;-0.10;99.90;;;;;;5107158;27;20043;-69
2023/01/25 10:31:02;;;;;;;85.60;30.45;;;0.00;99.90;;;;;;5097265;27;20051;-69
2023/01/25 10:33:31;;;;;;;82.90;29.45;;;-0.10;99.90;;;;;;5107626;27;20080;-72
2023/01/25 10:36:00;;;;;;;73.78;26.33;;;-0.10;99.90;;;;;;5112618;27;20039;-69
2023/01/25 10:38:31;;;;;;;76.60;25.63;;;-0.10;99.90;;;;;;5105811;27;20560;-69
2023/01/25 10:41:06;;;;;;;84.20;28.50;;;-0.20;99.90;;;;;;5114150;27;20035;-69
2023/01/25 10:43:32;;;;;;;78.88;24.58;;;-0.10;99.90;;;;;;5103871;27;20092;-70
2023/01/25 10:45:57;;;;;;;78.13;26.33;;;0.00;99.90;;;;;;5112445;27;20035;-69
2023/01/25 10:48:31;;;;;;;74.38;23.20;;;0.00;99.90;;;;;;5106747;27;20077;-69
2023/01/25 10:50:57;;;;;;;72.95;24.63;;;0.00;99.90;;;;;;5114009;27;20477;-69
2023/01/25 10:53:41;;;;;;;78.10;26.23;;;0.00;99.90;;;;;;5105274;27;20134;-68
2023/01/25 10:56:09;;;;;;;74.40;23.25;;;0.10;99.90;;;;;;5124982;27;20073;-71
2023/01/25 10:58:42;;;;;;;70.53;24.15;;;0.20;99.90;;;;;;5106946;27;20047;-70
2023/01/25 11:01:11;;;;;;;69.82;23.77;;;0.20;99.90;;;;;;5110164;27;20047;-70
2023/01/25 11:03:45;;;;;;;71.90;23.88;;;0.20;99.90;;;;;;5105783;27;20066;-71
2023/01/25 11:06:11;;;;;;;68.22;24.67;;;0.30;99.90;;;;;;5101382;27;20118;-70
2023/01/25 11:08:41;;;;;;;69.32;25.30;;;0.30;99.90;;;;;;5086936;27;20118;-71
2023/01/25 11:11:30;;;;;;;73.20;24.30;;;0.40;99.90;;;;;;5103340;27;20043;-72
2023/01/25 11:13:56;;;;;;;66.03;24.65;;;0.40;99.90;;;;;;5101260;27;20401;-68
2023/01/25 11:16:30;;;;;;;67.32;24.67;;;0.40;99.90;;;;;;5100824;27;20042;-69
2023/01/25 11:18:57;;;;;;;70.63;24.63;;;0.40;99.90;;;;;;5101630;27;20061;-69
2023/01/25 11:21:25;;;;;;;64.50;24.27;;;0.40;99.90;;;;;;5103708;27;20031;-68
2023/01/25 11:24:07;;;;;;;66.90;23.88;;;0.50;99.90;;;;;;5102513;27;20517;-70
2023/01/25 11:26:35;;;;;;;71.00;23.17;;;0.40;99.90;;;;;;5104637;27;20047;-69
2023/01/25 11:29:19;;;;;;;71.70;25.00;;;0.50;99.90;;;;;;5120059;27;20027;-69
2023/01/25 11:31:53;;;;;;;75.85;26.83;;;0.50;99.90;;;;;;5121079;27;20067;-69
2023/01/25 11:34:23;;;;;;;74.85;25.70;;;0.40;99.90;;;;;;5104026;27;20579;-70
2023/01/25 11:37:11;;;;;;;66.03;23.73;;;0.30;99.90;;;;;;5104430;27;20160;-70
2023/01/25 11:39:40;;;;;;;64.63;23.50;;;0.40;99.90;;;;;;5102194;27;20147;-69
2023/01/25 11:42:32;;;;;;;66.25;22.45;;;0.40;99.90;;;;;;5087010;27;20095;-69
2023/01/25 11:45:26;;;;;;;67.13;23.75;;;0.40;99.90;;;;;;5104917;27;20035;-69
2023/01/25 11:48:13;;;;;;;69.20;24.10;;;0.40;99.90;;;;;;5100706;27;20039;-68
2023/01/25 11:50:56;;;;;;;74.63;26.25;;;0.40;99.90;;;;;;5102364;27;20032;-69
2023/01/25 11:53:46;;;;;;;73.95;24.77;;;0.50;99.90;;;;;;5103538;27;20447;-68
2023/01/25 11:56:46;;;;;;;77.72;25.48;;;0.50;99.90;;;;;;5104902;27;20104;-66
2023/01/25 11:59:40;;;;;;;69.75;24.52;;;0.40;99.90;;;;;;5101034;27;20162;-67
2023/01/25 12:02:19;;;;;;;69.40;24.13;;;0.40;99.90;;;;;;5119559;27;20077;-66
2023/01/25 12:05:22;;;;;;;73.63;24.77;;;0.50;99.90;;;;;;5100372;27;20047;-67
2023/01/25 12:08:14;;;;;;;69.97;24.05;;;0.50;99.90;;;;;;5103469;27;20339;-67
2023/01/25 12:10:46;;;;;;;71.25;24.70;;;0.50;99.90;;;;;;5102017;27;20031;-66
2023/01/25 12:13:27;;;;;;;70.25;24.05;;;0.50;99.90;;;;;;5100777;27;20084;-68
2023/01/25 12:16:01;;;;;;;72.32;26.02;;;0.50;99.90;;;;;;5102668;27;20129;-68
2023/01/25 12:18:32;;;;;;;72.82;26.58;;;0.40;99.90;;;;;;5101287;27;20471;-68
2023/01/25 12:21:19;;;;;;;71.37;26.20;;;0.30;99.90;;;;;;5103385;27;20138;-67
2023/01/25 12:23:57;;;;;;;77.45;26.67;;;0.20;99.90;;;;;;5116385;27;21382;-67
2023/01/25 12:26:27;;;;;;;90.28;29.80;;;0.20;99.90;;;;;;5106997;27;20464;-67
2023/01/25 12:29:26;;;;;;;83.85;25.63;;;0.20;99.90;;;;;;5097979;27;20043;-68
2023/01/25 12:32:01;;;;;;;80.25;25.88;;;0.10;99.90;;;;;;5099649;27;20124;-66
2023/01/25 12:34:36;;;;;;;88.45;26.45;;;0.10;99.90;;;;;;5097646;28;20042;-67
2023/01/25 12:37:25;;;;;;;82.07;26.20;;;0.10;99.90;;;;;;5099513;27;20428;-68
2023/01/25 12:39:50;;;;;;;85.63;27.00;;;0.20;99.90;;;;;;5099494;28;20067;-67
2023/01/25 12:42:21;;;;;;;86.45;25.67;;;0.20;99.90;;;;;;5095637;28;20130;-66
2023/01/25 12:44:56;;;;;;;75.60;24.48;;;0.30;99.90;;;;;;5099202;27;20082;-66
2023/01/25 12:47:56;;;;;;;76.07;24.50;;;0.20;99.90;;;;;;5115870;28;20397;-68
2023/01/25 12:50:54;;;;;;;79.28;25.42;;;0.30;99.90;;;;;;5099115;28;20039;-67
2023/01/25 12:53:38;;;;;;;82.75;23.63;;;0.40;99.90;;;;;;5085641;27;20043;-66